Time;durP1;ratioP1;P1;durP2;ratioP2;P2;SDS_P1;SDS_P2;PMS_P1;PMS_P2;Temp;Humidity;BMP_temperature;BMP_pressure;BME280_temperature;BME280_humidity;BME280_pressure;Samples;Min_cycle;Max_cycle;Signal;HPM_P1;HPM_P2
2021/11/27 00:00:13;;;;;;;78.53;34.87;;;4.00;99.90;;;;;;5093062;28;20231;-82
2021/11/27 00:02:39;;;;;;;74.27;33.63;;;3.90;99.90;;;;;;5094378;28;20227;-82
2021/11/27 00:05:05;;;;;;;74.97;32.70;;;4.00;99.90;;;;;;5094094;28;20181;-82
2021/11/27 00:07:31;;;;;;;76.67;35.53;;;4.00;99.90;;;;;;5075643;28;20491;-82
2021/11/27 00:09:57;;;;;;;81.73;38.10;;;4.00;99.90;;;;;;5092452;28;20757;-81
2021/11/27 00:12:22;;;;;;;86.10;37.77;;;4.00;99.90;;;;;;5092626;28;20235;-82
2021/11/27 00:14:48;;;;;;;80.53;37.47;;;3.90;99.90;;;;;;5093952;28;20261;-82
2021/11/27 00:17:14;;;;;;;77.47;36.37;;;4.00;99.90;;;;;;5092805;28;20181;-83
2021/11/27 00:19:40;;;;;;;76.43;36.30;;;4.00;99.90;;;;;;5092799;28;20268;-82
2021/11/27 00:22:05;;;;;;;69.93;34.50;;;4.00;99.90;;;;;;5093068;28;20212;-82
2021/11/27 00:24:31;;;;;;;63.63;29.73;;;4.00;99.90;;;;;;5092241;28;20206;-81
2021/11/27 00:26:57;;;;;;;63.73;28.73;;;4.00;99.90;;;;;;5092301;28;20185;-82
2021/11/27 00:29:23;;;;;;;55.60;30.10;;;4.00;99.90;;;;;;5075360;28;20251;-83
2021/11/27 00:31:50;;;;;;;62.00;29.53;;;3.90;99.90;;;;;;5092463;28;20179;-83
2021/11/27 00:34:16;;;;;;;60.73;28.00;;;3.90;99.90;;;;;;5092285;28;20276;-86
2021/11/27 00:36:43;;;;;;;65.10;31.87;;;3.90;99.90;;;;;;5075346;28;20545;-82
2021/11/27 00:39:09;;;;;;;73.23;32.90;;;3.90;99.90;;;;;;5093776;28;20195;-82
2021/11/27 00:41:35;;;;;;;69.50;33.13;;;3.90;99.90;;;;;;5091905;28;20185;-82
2021/11/27 00:44:01;;;;;;;67.33;31.97;;;3.90;99.90;;;;;;5092219;28;20298;-82
2021/11/27 00:46:27;;;;;;;64.57;31.87;;;4.00;99.90;;;;;;5091980;28;20243;-82
2021/11/27 00:48:53;;;;;;;65.83;30.60;;;3.90;99.90;;;;;;5092363;28;20183;-83
2021/11/27 00:51:26;;;;;;;66.63;31.93;;;3.90;99.90;;;;;;5091847;28;20533;-83
2021/11/27 00:53:52;;;;;;;64.77;30.87;;;4.00;99.90;;;;;;5092210;28;20580;-83
2021/11/27 00:56:19;;;;;;;67.17;31.60;;;4.00;99.90;;;;;;5092151;28;20227;-82
2021/11/27 00:58:46;;;;;;;75.40;32.93;;;4.00;99.90;;;;;;5092227;28;20178;-82
2021/11/27 01:01:17;;;;;;;67.57;31.03;;;4.00;99.90;;;;;;5093035;28;20175;-82
2021/11/27 01:03:44;;;;;;;68.53;32.50;;;4.00;99.90;;;;;;5092976;28;20201;-83
2021/11/27 01:06:11;;;;;;;74.97;34.13;;;4.00;99.90;;;;;;5092307;28;20217;-82
2021/11/27 01:08:37;;;;;;;73.00;33.20;;;4.00;99.90;;;;;;5092720;28;20202;-83
2021/11/27 01:11:29;;;;;;;71.80;34.13;;;4.00;99.90;;;;;;5091631;28;20230;-83
2021/11/27 01:13:58;;;;;;;71.70;34.77;;;4.00;99.90;;;;;;5092066;28;20181;-83
2021/11/27 01:16:27;;;;;;;68.10;31.63;;;4.00;99.90;;;;;;5093067;28;20174;-83
2021/11/27 01:18:53;;;;;;;67.40;33.73;;;4.10;99.90;;;;;;5092138;28;20177;-82
2021/11/27 01:21:23;;;;;;;74.47;35.23;;;4.00;99.90;;;;;;5093161;28;20215;-82
2021/11/27 01:23:50;;;;;;;70.73;34.17;;;4.00;99.90;;;;;;5093155;28;20305;-82
2021/11/27 01:26:17;;;;;;;74.27;33.00;;;4.00;99.90;;;;;;5093091;28;20182;-82
2021/11/27 01:28:42;;;;;;;75.90;34.77;;;4.00;99.90;;;;;;5093047;28;20182;-82
2021/11/27 01:31:09;;;;;;;67.27;33.10;;;4.10;99.90;;;;;;5092151;28;20193;-82
2021/11/27 01:33:35;;;;;;;63.60;29.67;;;4.00;99.90;;;;;;5093129;28;20182;-82
2021/11/27 01:36:02;;;;;;;70.37;32.40;;;4.10;99.90;;;;;;5092077;28;20277;-82
2021/11/27 01:38:29;;;;;;;72.93;34.33;;;4.10;99.90;;;;;;5095345;28;20181;-82
2021/11/27 01:40:55;;;;;;;85.73;38.73;;;4.10;99.90;;;;;;5097326;28;20179;-82
2021/11/27 01:43:21;;;;;;;72.80;34.37;;;4.10;99.90;;;;;;5097341;28;20227;-83
2021/11/27 01:45:47;;;;;;;76.57;33.40;;;4.10;99.90;;;;;;5078813;28;20652;-83
2021/11/27 01:48:16;;;;;;;76.17;33.90;;;4.10;99.90;;;;;;5095807;28;20273;-81
2021/11/27 01:50:46;;;;;;;80.70;33.93;;;4.10;99.90;;;;;;5097548;28;20256;-82
2021/11/27 01:53:12;;;;;;;85.23;35.43;;;4.20;99.90;;;;;;5097443;28;20185;-82
2021/11/27 01:55:40;;;;;;;78.70;33.47;;;4.20;99.90;;;;;;5096535;28;20184;-81
2021/11/27 01:58:07;;;;;;;63.87;30.73;;;4.20;99.90;;;;;;5096335;28;20189;-81
2021/11/27 02:00:37;;;;;;;83.77;34.43;;;4.20;99.90;;;;;;5096696;28;20189;-81
2021/11/27 02:03:04;;;;;;;68.33;32.87;;;4.20;99.90;;;;;;5098113;28;20660;-82
2021/11/27 02:05:29;;;;;;;73.90;32.33;;;4.20;99.90;;;;;;5095908;28;20597;-83
2021/11/27 02:07:55;;;;;;;68.37;31.60;;;4.20;99.90;;;;;;5095893;28;20264;-82
2021/11/27 02:10:21;;;;;;;68.23;30.83;;;4.20;99.90;;;;;;5095970;28;20226;-82
2021/11/27 02:12:48;;;;;;;61.67;31.60;;;4.20;99.90;;;;;;5096258;28;20654;-82
2021/11/27 02:15:14;;;;;;;61.20;30.57;;;4.30;99.90;;;;;;5096110;28;20228;-82
2021/11/27 02:17:41;;;;;;;65.17;28.77;;;4.20;99.90;;;;;;5096267;28;20182;-82
2021/11/27 02:20:08;;;;;;;60.37;29.53;;;4.30;99.90;;;;;;5096996;28;20649;-82
2021/11/27 02:22:34;;;;;;;61.20;29.73;;;4.30;99.90;;;;;;5094864;28;20178;-83
2021/11/27 02:25:18;;;;;;;64.77;29.40;;;4.30;99.90;;;;;;5095330;28;20208;-82
2021/11/27 02:27:46;;;;;;;52.47;26.60;;;4.30;99.90;;;;;;5096004;28;20187;-82
2021/11/27 02:30:15;;;;;;;50.20;25.37;;;4.30;99.90;;;;;;5096299;28;20204;-82
2021/11/27 02:32:42;;;;;;;46.47;21.43;;;4.40;99.90;;;;;;5095869;28;20204;-82
2021/11/27 02:35:08;;;;;;;42.50;22.50;;;4.40;99.90;;;;;;5094708;28;20570;-82
2021/11/27 02:37:34;;;;;;;44.60;21.57;;;4.50;99.90;;;;;;5095914;28;20569;-82
2021/11/27 02:40:00;;;;;;;44.50;21.53;;;4.50;99.90;;;;;;5078548;28;20247;-82
2021/11/27 02:42:26;;;;;;;43.43;21.80;;;4.50;99.90;;;;;;5094847;28;20639;-81
2021/11/27 02:44:52;;;;;;;43.07;21.07;;;4.50;99.90;;;;;;5095719;28;20186;-82
2021/11/27 02:47:18;;;;;;;43.00;21.60;;;4.50;99.90;;;;;;5095839;28;20202;-82
2021/11/27 02:49:43;;;;;;;46.33;22.73;;;4.50;99.90;;;;;;5093866;28;20209;-82
2021/11/27 02:52:10;;;;;;;42.60;20.90;;;4.60;99.90;;;;;;5094528;28;20177;-82
2021/11/27 02:54:36;;;;;;;41.93;21.03;;;4.60;99.90;;;;;;5094280;28;20209;-83
2021/11/27 02:57:02;;;;;;;45.97;22.43;;;4.70;99.90;;;;;;5095704;28;20181;-81
2021/11/27 02:59:29;;;;;;;47.97;24.00;;;4.60;99.90;;;;;;5077687;28;20515;-82
2021/11/27 03:02:00;;;;;;;45.80;24.07;;;4.70;99.90;;;;;;5095341;28;20182;-82
2021/11/27 03:04:28;;;;;;;49.83;23.63;;;4.60;99.90;;;;;;5095003;28;20276;-82
2021/11/27 03:06:55;;;;;;;49.73;24.63;;;4.60;99.90;;;;;;5095387;28;20208;-82
2021/11/27 03:09:21;;;;;;;49.07;23.97;;;4.70;99.90;;;;;;5096075;28;20257;-82
2021/11/27 03:11:52;;;;;;;47.47;24.73;;;4.60;99.90;;;;;;5093864;28;20181;-82
2021/11/27 03:14:19;;;;;;;48.93;23.60;;;4.70;99.90;;;;;;5094434;28;20212;-82
2021/11/27 03:16:45;;;;;;;52.57;25.37;;;4.70;99.90;;;;;;5094298;28;20181;-82
2021/11/27 03:19:11;;;;;;;50.07;25.10;;;4.70;99.90;;;;;;5094069;28;20191;-81
2021/11/27 03:21:37;;;;;;;44.93;24.60;;;4.70;99.90;;;;;;5077657;28;20182;-81
2021/11/27 03:24:04;;;;;;;45.67;24.17;;;4.70;99.90;;;;;;5094568;28;20213;-81
2021/11/27 03:26:30;;;;;;;47.50;23.73;;;4.70;99.90;;;;;;5094831;28;20193;-81
2021/11/27 03:28:55;;;;;;;43.70;22.50;;;4.70;99.90;;;;;;5095769;28;20193;-81
2021/11/27 03:31:21;;;;;;;44.47;22.80;;;4.80;99.90;;;;;;5094204;28;20182;-82
2021/11/27 03:33:47;;;;;;;41.27;23.20;;;4.70;99.90;;;;;;5094991;28;20186;-82
2021/11/27 03:36:15;;;;;;;42.07;22.90;;;4.70;99.90;;;;;;5093638;28;20189;-82
2021/11/27 03:38:41;;;;;;;41.03;22.13;;;4.70;99.90;;;;;;5094738;28;20186;-82
2021/11/27 03:41:07;;;;;;;37.30;20.40;;;4.80;99.90;;;;;;5101042;28;20177;-81
2021/11/27 03:43:33;;;;;;;38.53;19.03;;;4.70;99.90;;;;;;5099785;28;20288;-82
2021/11/27 03:46:00;;;;;;;33.27;19.37;;;4.70;99.90;;;;;;5101801;28;20718;-82
2021/11/27 03:48:34;;;;;;;34.37;18.77;;;4.70;99.90;;;;;;5101344;28;20538;-82
2021/11/27 03:51:05;;;;;;;33.63;18.73;;;4.60;99.90;;;;;;5112928;28;20179;-82
2021/11/27 03:53:36;;;;;;;27.23;13.97;;;4.60;99.90;;;;;;5119365;28;20157;-82
2021/11/27 03:56:05;;;;;;;32.03;18.70;;;4.60;99.90;;;;;;5119194;28;20225;-83
2021/11/27 03:58:31;;;;;;;30.23;16.67;;;4.60;99.90;;;;;;5118894;28;20153;-83
2021/11/27 04:00:58;;;;;;;23.63;15.00;;;4.50;99.90;;;;;;5098348;28;20178;-82
2021/11/27 04:03:25;;;;;;;35.10;20.23;;;4.50;99.90;;;;;;5088573;28;20278;-82
2021/11/27 04:05:54;;;;;;;45.53;23.77;;;4.50;99.90;;;;;;5104631;28;20277;-83
2021/11/27 04:08:21;;;;;;;60.57;31.60;;;4.50;99.90;;;;;;5118753;28;20168;-83
2021/11/27 04:10:48;;;;;;;28.57;18.07;;;4.50;99.90;;;;;;5117763;28;20308;-87
2021/11/27 04:13:14;;;;;;;29.63;17.90;;;4.40;99.90;;;;;;5118571;28;20170;-82
2021/11/27 04:15:40;;;;;;;24.97;15.57;;;4.50;99.90;;;;;;5108799;28;20567;-83
2021/11/27 04:18:06;;;;;;;23.13;15.20;;;4.50;99.90;;;;;;5093592;28;20182;-81
2021/11/27 04:20:32;;;;;;;26.23;14.10;;;4.40;99.90;;;;;;5095876;28;20184;-80
2021/11/27 04:22:58;;;;;;;23.53;14.43;;;4.40;99.90;;;;;;5094127;28;20212;-81
2021/11/27 04:25:24;;;;;;;21.23;13.67;;;4.50;99.90;;;;;;5095656;28;20265;-81
2021/11/27 04:27:50;;;;;;;23.10;15.20;;;4.40;99.90;;;;;;5092316;28;20239;-82
2021/11/27 04:30:19;;;;;;;22.93;14.37;;;4.40;99.90;;;;;;5076727;28;20560;-81
2021/11/27 04:32:46;;;;;;;18.97;12.20;;;4.40;99.90;;;;;;5095277;28;20177;-81
2021/11/27 04:35:14;;;;;;;25.53;15.50;;;4.40;99.90;;;;;;5095485;28;20177;-80
2021/11/27 04:37:40;;;;;;;25.53;15.00;;;4.30;99.90;;;;;;5093280;28;20213;-81
2021/11/27 04:40:07;;;;;;;21.93;13.97;;;4.30;99.90;;;;;;5093687;28;20629;-81
2021/11/27 04:42:34;;;;;;;31.37;17.83;;;4.30;99.90;;;;;;5093548;28;20179;-82
2021/11/27 04:45:00;;;;;;;26.17;15.07;;;4.40;99.90;;;;;;5092127;28;20543;-82
2021/11/27 04:47:26;;;;;;;27.03;15.50;;;4.30;99.90;;;;;;5093536;28;20210;-82
2021/11/27 04:49:52;;;;;;;25.03;15.60;;;4.30;99.90;;;;;;5092577;28;20622;-85
2021/11/27 04:52:18;;;;;;;26.50;16.10;;;4.30;99.90;;;;;;5094017;28;20182;-80
2021/11/27 04:54:44;;;;;;;25.83;14.93;;;4.30;99.90;;;;;;5092632;28;20188;-81
2021/11/27 04:57:10;;;;;;;23.87;15.30;;;4.30;99.90;;;;;;5093213;28;20197;-82
2021/11/27 04:59:36;;;;;;;20.97;12.17;;;4.30;99.90;;;;;;5093181;28;20654;-81
2021/11/27 05:02:02;;;;;;;20.53;11.77;;;4.20;99.90;;;;;;5092668;28;20212;-82
2021/11/27 05:04:29;;;;;;;19.97;13.03;;;4.30;99.90;;;;;;5093128;28;20228;-80
2021/11/27 05:06:55;;;;;;;20.33;13.07;;;4.30;99.90;;;;;;5091787;28;20547;-82
2021/11/27 05:09:21;;;;;;;17.13;10.87;;;4.30;99.90;;;;;;5091829;28;20630;-82
2021/11/27 05:11:47;;;;;;;19.93;12.47;;;4.20;99.90;;;;;;5094413;28;20626;-82
2021/11/27 05:14:13;;;;;;;20.80;13.13;;;4.30;99.90;;;;;;5097104;28;20206;-82
2021/11/27 05:16:39;;;;;;;21.60;12.83;;;4.20;99.90;;;;;;5097073;28;20552;-83
2021/11/27 05:19:04;;;;;;;21.73;12.47;;;4.20;99.90;;;;;;5095729;28;20175;-82
2021/11/27 05:21:31;;;;;;;22.53;13.40;;;4.30;99.90;;;;;;5077535;28;20188;-82
2021/11/27 05:23:57;;;;;;;17.47;10.73;;;4.20;99.90;;;;;;5086552;28;20212;-82
2021/11/27 05:26:23;;;;;;;22.20;12.67;;;4.20;99.90;;;;;;5082111;28;20556;-82
2021/11/27 05:28:49;;;;;;;21.07;13.27;;;4.20;99.90;;;;;;5084862;28;20182;-81
2021/11/27 05:31:17;;;;;;;22.20;12.80;;;4.20;99.90;;;;;;5083341;28;20180;-81
2021/11/27 05:36:18;;;;;;;21.33;12.83;;;4.20;99.90;;;;;;5086980;28;20180;-81
2021/11/27 05:38:45;;;;;;;15.40;9.80;;;4.10;99.90;;;;;;5086255;28;20182;-82
2021/11/27 05:41:12;;;;;;;17.83;11.00;;;4.10;99.90;;;;;;5084822;28;20180;-81
2021/11/27 05:43:37;;;;;;;17.87;11.37;;;4.10;99.90;;;;;;5093452;28;20208;-81
2021/11/27 05:46:03;;;;;;;13.33;9.20;;;4.10;99.90;;;;;;5095517;28;20183;-81
2021/11/27 05:48:29;;;;;;;14.87;10.50;;;4.10;99.90;;;;;;5068285;28;20277;-81
2021/11/27 05:50:55;;;;;;;14.40;10.30;;;4.00;99.90;;;;;;5084672;28;20210;-81
2021/11/27 05:53:21;;;;;;;16.47;10.10;;;4.00;99.90;;;;;;5069773;28;20207;-82
2021/11/27 05:55:48;;;;;;;15.47;9.57;;;4.00;99.90;;;;;;5087548;28;20231;-82
2021/11/27 05:58:15;;;;;;;13.37;8.57;;;4.00;99.90;;;;;;5092524;28;20233;-82
2021/11/27 06:00:42;;;;;;;17.77;9.40;;;4.00;99.90;;;;;;5104001;28;20239;-81
2021/11/27 06:03:08;;;;;;;16.50;10.30;;;4.00;99.90;;;;;;5091627;28;20230;-81
2021/11/27 06:05:33;;;;;;;14.27;7.93;;;3.90;99.90;;;;;;5090624;28;20215;-80
2021/11/27 06:07:59;;;;;;;12.53;8.40;;;4.00;99.90;;;;;;5090663;28;20212;-81
2021/11/27 06:10:25;;;;;;;11.13;7.97;;;3.90;99.90;;;;;;5091586;28;20235;-81
2021/11/27 06:12:51;;;;;;;14.67;8.43;;;3.80;99.90;;;;;;5091513;28;20553;-82
2021/11/27 06:15:17;;;;;;;11.93;6.97;;;3.70;99.90;;;;;;5093122;28;20184;-81
2021/11/27 06:17:42;;;;;;;11.07;6.87;;;3.60;99.90;;;;;;5074320;28;20201;-80
2021/11/27 06:20:09;;;;;;;10.20;7.07;;;3.60;99.90;;;;;;5091127;28;20236;-82
2021/11/27 06:22:34;;;;;;;9.13;6.40;;;3.50;99.90;;;;;;5092056;28;20197;-82
2021/11/27 06:25:00;;;;;;;10.07;5.40;;;3.40;99.90;;;;;;5091555;28;20562;-81
2021/11/27 06:27:26;;;;;;;6.30;4.67;;;3.30;99.90;;;;;;5093416;28;20222;-82
2021/11/27 06:29:52;;;;;;;9.73;6.23;;;3.20;99.90;;;;;;5091327;28;20214;-82
2021/11/27 06:32:22;;;;;;;5.50;4.03;;;3.10;99.90;;;;;;5090628;28;20244;-81
2021/11/27 06:34:49;;;;;;;9.30;6.00;;;3.00;99.90;;;;;;5093025;28;20185;-82
2021/11/27 06:37:17;;;;;;;8.17;6.17;;;3.00;99.90;;;;;;5093214;28;20255;-81
2021/11/27 06:39:42;;;;;;;6.07;4.40;;;2.90;99.90;;;;;;5091652;28;20194;-81
2021/11/27 06:42:08;;;;;;;7.50;5.60;;;2.80;99.90;;;;;;5091416;28;20183;-81
2021/11/27 06:44:34;;;;;;;9.43;7.17;;;2.80;99.90;;;;;;5090649;28;20276;-82
2021/11/27 06:47:00;;;;;;;9.77;6.57;;;2.80;99.90;;;;;;5090077;28;20643;-81
2021/11/27 06:49:26;;;;;;;7.70;5.43;;;2.80;99.90;;;;;;5092240;28;20284;-81
2021/11/27 06:51:52;;;;;;;8.20;5.60;;;2.70;99.90;;;;;;5091747;28;20757;-82
2021/11/27 06:54:18;;;;;;;8.33;5.00;;;2.60;99.90;;;;;;5089630;28;20269;-83
2021/11/27 06:56:43;;;;;;;7.97;5.37;;;2.60;99.90;;;;;;5086721;28;20626;-83
2021/11/27 06:59:09;;;;;;;10.73;6.97;;;2.50;99.90;;;;;;5090609;28;20248;-82
2021/11/27 07:01:34;;;;;;;15.37;9.27;;;2.50;99.90;;;;;;5087456;28;20193;-83
2021/11/27 07:04:00;;;;;;;16.57;6.93;;;2.50;99.90;;;;;;5087728;28;20656;-81
2021/11/27 07:06:26;;;;;;;12.17;7.40;;;2.50;99.90;;;;;;5090751;28;20210;-82
2021/11/27 07:08:52;;;;;;;11.77;7.93;;;2.40;99.90;;;;;;5088445;28;20178;-79
2021/11/27 07:11:18;;;;;;;13.97;8.40;;;2.30;99.90;;;;;;5089467;28;20712;-81
2021/11/27 07:13:44;;;;;;;12.80;7.73;;;2.30;99.90;;;;;;5074413;28;20199;-80
2021/11/27 07:16:09;;;;;;;16.83;8.87;;;2.30;99.90;;;;;;5091149;28;20190;-86
2021/11/27 07:18:35;;;;;;;13.83;8.53;;;2.40;99.90;;;;;;5083200;28;20191;-82
2021/11/27 07:21:01;;;;;;;15.47;9.60;;;2.30;99.90;;;;;;5080858;28;20179;-82
2021/11/27 07:23:26;;;;;;;17.87;9.77;;;2.40;99.90;;;;;;5089746;28;20681;-81
2021/11/27 07:25:52;;;;;;;12.77;8.33;;;2.30;99.90;;;;;;5092762;28;20179;-81
2021/11/27 07:28:18;;;;;;;16.93;10.60;;;2.30;99.90;;;;;;5093279;28;20174;-81
2021/11/27 07:30:44;;;;;;;14.13;8.23;;;2.30;99.90;;;;;;5092762;28;20185;-81
2021/11/27 07:33:10;;;;;;;14.17;9.43;;;2.20;99.90;;;;;;5093357;28;20179;-81
2021/11/27 07:35:35;;;;;;;12.93;8.80;;;2.20;99.90;;;;;;5086297;28;20186;-83
2021/11/27 07:38:01;;;;;;;13.70;9.30;;;2.20;99.90;;;;;;5087639;28;20255;-82
2021/11/27 07:40:27;;;;;;;17.43;10.40;;;2.20;99.90;;;;;;5091603;28;20748;-81
2021/11/27 07:42:53;;;;;;;11.30;7.13;;;2.20;99.90;;;;;;5086776;28;20218;-81
2021/11/27 07:45:20;;;;;;;14.70;10.10;;;2.20;99.90;;;;;;5092821;28;20182;-82
2021/11/27 07:47:45;;;;;;;14.93;10.30;;;2.20;99.90;;;;;;5090118;28;20178;-81
2021/11/27 07:50:11;;;;;;;15.40;8.70;;;2.30;99.90;;;;;;5093218;28;20780;-82
2021/11/27 07:52:37;;;;;;;10.40;7.37;;;2.30;99.90;;;;;;5093021;28;20737;-81
2021/11/27 07:55:03;;;;;;;10.33;7.30;;;2.30;99.90;;;;;;5093266;28;20167;-81
2021/11/27 07:57:29;;;;;;;13.10;8.23;;;2.30;99.90;;;;;;5091720;28;20268;-81
2021/11/27 07:59:55;;;;;;;15.07;8.63;;;2.30;99.90;;;;;;5092345;28;20622;-82
2021/11/27 08:02:20;;;;;;;13.97;8.70;;;2.30;99.90;;;;;;5088161;28;20266;-81
2021/11/27 08:04:47;;;;;;;12.73;8.63;;;2.30;99.90;;;;;;5082342;28;21236;-81
2021/11/27 08:07:13;;;;;;;13.00;8.87;;;2.40;99.90;;;;;;5085035;28;20194;-82
2021/11/27 08:09:39;;;;;;;12.27;8.33;;;2.40;99.90;;;;;;5081718;28;20713;-81
2021/11/27 08:12:05;;;;;;;12.83;8.67;;;2.50;99.90;;;;;;5064923;28;20179;-82
2021/11/27 08:14:32;;;;;;;14.47;9.77;;;2.50;99.90;;;;;;5079794;28;20220;-83
2021/11/27 08:17:01;;;;;;;14.00;8.93;;;2.40;99.90;;;;;;5082054;28;20639;-82
2021/11/27 08:19:28;;;;;;;14.50;9.20;;;2.50;99.90;;;;;;5081492;28;20490;-81
2021/11/27 08:21:54;;;;;;;13.83;9.40;;;2.50;99.90;;;;;;5083245;28;20210;-81
2021/11/27 08:24:21;;;;;;;13.20;9.03;;;2.50;99.90;;;;;;5081677;28;20222;-83
2021/11/27 08:26:47;;;;;;;12.77;9.03;;;2.40;99.90;;;;;;5079972;28;20188;-81
2021/11/27 08:29:13;;;;;;;15.83;9.97;;;2.40;99.90;;;;;;5076056;28;20179;-80
2021/11/27 08:31:39;;;;;;;13.73;8.17;;;2.40;99.90;;;;;;5054367;28;20190;-80
2021/11/27 08:34:05;;;;;;;12.67;8.60;;;2.50;99.90;;;;;;5072503;28;20276;-80
2021/11/27 08:36:31;;;;;;;13.40;8.93;;;2.50;99.90;;;;;;5070995;28;20187;-82
2021/11/27 08:38:57;;;;;;;16.17;9.70;;;2.50;99.90;;;;;;5072774;28;20175;-81
2021/11/27 08:41:23;;;;;;;13.40;8.23;;;2.50;99.90;;;;;;5054598;28;20202;-84
2021/11/27 08:43:49;;;;;;;14.20;9.33;;;2.50;99.90;;;;;;5071344;28;20203;-80
2021/11/27 08:46:14;;;;;;;15.40;10.07;;;2.60;99.90;;;;;;5074643;28;20781;-81
2021/11/27 08:48:40;;;;;;;14.83;9.90;;;2.60;99.90;;;;;;5077035;28;20187;-80
2021/11/27 08:51:09;;;;;;;15.30;10.00;;;2.60;99.90;;;;;;5071867;28;20176;-80
2021/11/27 08:53:36;;;;;;;15.83;9.97;;;2.60;99.90;;;;;;5072272;28;20262;-81
2021/11/27 08:56:03;;;;;;;17.67;11.40;;;2.70;99.90;;;;;;5077863;28;20662;-82
2021/11/27 08:58:29;;;;;;;12.67;7.03;;;2.70;99.90;;;;;;5092462;28;20205;-81
2021/11/27 09:00:55;;;;;;;18.53;10.80;;;2.70;99.90;;;;;;5091641;28;20187;-81
2021/11/27 09:03:20;;;;;;;19.13;10.03;;;2.70;99.90;;;;;;5092593;28;20203;-81
2021/11/27 09:05:46;;;;;;;16.30;9.37;;;2.70;99.90;;;;;;5092074;28;20179;-80
2021/11/27 09:08:13;;;;;;;13.70;7.90;;;2.70;99.90;;;;;;5091479;28;20276;-80
2021/11/27 09:10:40;;;;;;;12.43;7.80;;;2.70;99.90;;;;;;5092301;28;20284;-80
2021/11/27 09:13:06;;;;;;;15.30;10.70;;;2.70;99.90;;;;;;5093120;28;20270;-81
2021/11/27 09:15:32;;;;;;;19.03;10.87;;;2.70;99.90;;;;;;5090953;28;20262;-82
2021/11/27 09:17:57;;;;;;;12.87;8.00;;;2.80;99.90;;;;;;5074627;28;20619;-80
2021/11/27 09:20:23;;;;;;;12.67;8.27;;;2.80;99.90;;;;;;5091287;28;20179;-79
2021/11/27 09:22:49;;;;;;;15.03;9.43;;;2.70;99.90;;;;;;5074188;28;20185;-80
2021/11/27 09:25:14;;;;;;;16.00;9.83;;;2.70;99.90;;;;;;5091320;28;20187;-80
2021/11/27 09:27:40;;;;;;;9.93;6.53;;;2.60;99.90;;;;;;5089801;28;20192;-80
2021/11/27 09:30:08;;;;;;;16.63;10.17;;;2.70;99.90;;;;;;5081248;28;20584;-79
2021/11/27 09:32:35;;;;;;;12.37;7.43;;;2.70;99.90;;;;;;5071585;28;20179;-79
2021/11/27 09:35:02;;;;;;;14.50;7.00;;;2.70;99.90;;;;;;5070798;28;20180;-79
2021/11/27 09:37:28;;;;;;;14.63;9.10;;;2.60;99.90;;;;;;5089531;28;20639;-80
2021/11/27 09:39:55;;;;;;;16.10;9.70;;;2.60;99.90;;;;;;5076329;28;20265;-79
2021/11/27 09:42:21;;;;;;;17.07;10.13;;;2.60;99.90;;;;;;5054157;28;20196;-80
2021/11/27 09:44:52;;;;;;;13.47;6.97;;;2.70;99.90;;;;;;5071159;28;20208;-79
2021/11/27 09:47:19;;;;;;;17.13;9.57;;;2.70;99.90;;;;;;5070821;28;20341;-81
2021/11/27 09:49:46;;;;;;;13.80;8.80;;;2.70;99.90;;;;;;5078135;28;20189;-80
2021/11/27 09:52:13;;;;;;;16.70;9.90;;;2.70;99.90;;;;;;5092223;28;20170;-79
2021/11/27 09:54:40;;;;;;;14.90;10.40;;;2.60;99.90;;;;;;5087642;28;20217;-80
2021/11/27 09:57:12;;;;;;;18.43;9.60;;;2.60;99.90;;;;;;5071744;28;20242;-80
2021/11/27 09:59:39;;;;;;;12.50;7.53;;;2.70;99.90;;;;;;5073698;28;20180;-81
2021/11/27 10:02:11;;;;;;;15.17;9.33;;;2.70;99.90;;;;;;5058455;28;20185;-81
2021/11/27 10:04:42;;;;;;;14.83;9.50;;;2.70;99.90;;;;;;5075428;28;20199;-80
2021/11/27 10:07:12;;;;;;;16.00;8.63;;;2.70;99.90;;;;;;5074229;28;20186;-80
2021/11/27 10:09:39;;;;;;;15.23;8.70;;;2.70;99.90;;;;;;5074135;28;20235;-81
2021/11/27 10:12:07;;;;;;;16.20;8.40;;;2.70;99.90;;;;;;5075604;28;20162;-79
2021/11/27 10:14:34;;;;;;;13.20;8.77;;;2.70;99.90;;;;;;5075466;28;20179;-80
2021/11/27 10:17:06;;;;;;;17.00;9.67;;;2.70;99.90;;;;;;5057682;28;20621;-80
2021/11/27 10:19:43;;;;;;;15.63;7.67;;;2.70;99.90;;;;;;5077412;28;20600;-80
2021/11/27 10:22:15;;;;;;;19.00;10.57;;;2.60;99.90;;;;;;5078204;28;20182;-80
2021/11/27 10:24:46;;;;;;;16.03;9.60;;;2.60;99.90;;;;;;5077244;28;20199;-80
2021/11/27 10:27:18;;;;;;;13.67;9.10;;;2.60;99.90;;;;;;5078997;28;20235;-80
2021/11/27 10:29:54;;;;;;;16.57;10.27;;;2.60;99.90;;;;;;5090114;28;20159;-83
2021/11/27 10:32:21;;;;;;;13.70;8.87;;;2.70;99.90;;;;;;5084752;28;20182;-81
2021/11/27 10:34:50;;;;;;;15.63;9.43;;;2.60;99.90;;;;;;5117247;28;20162;-84
2021/11/27 10:37:31;;;;;;;18.77;10.23;;;2.60;99.90;;;;;;5120593;28;20187;-80
2021/11/27 10:40:00;;;;;;;17.73;10.87;;;2.60;99.90;;;;;;5115559;28;20603;-79
2021/11/27 10:42:26;;;;;;;20.43;12.30;;;2.70;99.90;;;;;;5100255;28;20172;-82
2021/11/27 10:44:53;;;;;;;21.57;11.17;;;2.70;99.90;;;;;;5099710;28;20230;-82
2021/11/27 10:47:19;;;;;;;18.90;10.93;;;2.70;99.90;;;;;;5118230;28;20167;-82
2021/11/27 10:49:47;;;;;;;16.10;9.77;;;2.70;99.90;;;;;;5113556;28;20170;-85
2021/11/27 10:52:22;;;;;;;19.57;10.07;;;2.60;99.90;;;;;;5107945;28;20156;-81
2021/11/27 10:54:56;;;;;;;20.17;11.07;;;2.60;99.90;;;;;;5086637;28;20175;-80
2021/11/27 10:57:35;;;;;;;17.57;9.00;;;2.70;99.90;;;;;;5084343;28;20303;-81
2021/11/27 11:00:28;;;;;;;20.10;11.97;;;2.70;99.90;;;;;;5082849;28;20186;-81
2021/11/27 11:02:55;;;;;;;17.00;9.90;;;2.80;99.90;;;;;;5083843;28;20167;-80
2021/11/27 11:05:21;;;;;;;17.63;10.60;;;2.80;99.90;;;;;;5082714;28;20216;-80
2021/11/27 11:07:55;;;;;;;19.07;11.37;;;2.90;99.90;;;;;;5084289;28;20171;-80
2021/11/27 11:10:22;;;;;;;15.57;10.17;;;2.90;99.90;;;;;;5084625;28;20239;-80
2021/11/27 11:12:59;;;;;;;15.37;9.33;;;2.90;99.90;;;;;;5081685;28;20587;-80
2021/11/27 11:15:35;;;;;;;17.77;9.37;;;2.90;99.90;;;;;;5091953;28;20223;-79
2021/11/27 11:18:10;;;;;;;17.00;11.03;;;2.90;99.90;;;;;;5082148;28;20607;-80
2021/11/27 11:20:38;;;;;;;19.43;9.60;;;3.00;99.90;;;;;;5083717;28;20199;-79
2021/11/27 11:23:09;;;;;;;16.87;10.93;;;2.90;99.90;;;;;;5083575;28;20442;-80
2021/11/27 11:25:58;;;;;;;20.13;11.10;;;2.90;99.90;;;;;;5082684;28;20668;-79
2021/11/27 11:28:26;;;;;;;16.57;9.77;;;2.90;99.90;;;;;;5059701;28;20196;-80
2021/11/27 11:31:00;;;;;;;22.60;12.47;;;2.90;99.90;;;;;;5073345;28;20520;-79
2021/11/27 11:33:26;;;;;;;21.13;11.20;;;2.90;99.90;;;;;;5067102;28;20184;-79
2021/11/27 11:35:52;;;;;;;21.67;11.87;;;2.90;99.90;;;;;;5082247;28;20227;-79
2021/11/27 11:38:19;;;;;;;23.30;12.33;;;2.90;99.90;;;;;;5084970;28;20171;-78
2021/11/27 11:40:46;;;;;;;19.97;10.97;;;2.90;99.90;;;;;;5082780;28;20188;-80
2021/11/27 11:43:13;;;;;;;15.87;9.23;;;3.00;99.90;;;;;;5082714;28;20210;-79
2021/11/27 11:45:39;;;;;;;21.00;12.00;;;2.90;99.90;;;;;;5080863;28;20194;-80
2021/11/27 11:48:06;;;;;;;20.13;11.67;;;2.90;99.90;;;;;;5073290;28;20180;-79
2021/11/27 11:50:37;;;;;;;18.50;10.47;;;2.90;99.90;;;;;;5075324;28;20236;-79
2021/11/27 11:53:22;;;;;;;16.27;8.80;;;2.90;99.90;;;;;;5092637;28;20259;-80
2021/11/27 11:56:04;;;;;;;17.53;9.60;;;2.90;99.90;;;;;;5082558;28;20171;-81
2021/11/27 11:58:33;;;;;;;14.20;7.70;;;3.00;99.90;;;;;;5078592;28;20257;-81
2021/11/27 12:01:04;;;;;;;21.10;9.90;;;2.90;99.90;;;;;;5081729;28;20277;-80
2021/11/27 12:03:41;;;;;;;18.30;10.43;;;2.90;99.90;;;;;;5072540;28;20200;-80
2021/11/27 12:06:08;;;;;;;16.10;9.63;;;2.90;99.90;;;;;;5081455;28;20266;-78
2021/11/27 12:08:49;;;;;;;8.37;5.47;;;3.00;99.90;;;;;;5080008;28;20202;-79
2021/11/27 12:11:46;;;;;;;20.00;9.57;;;3.00;99.90;;;;;;5072323;28;20687;-80
2021/11/27 12:14:21;;;;;;;18.30;8.10;;;2.90;99.90;;;;;;5070669;28;20185;-79
2021/11/27 12:17:14;;;;;;;14.97;9.40;;;3.00;99.90;;;;;;5072527;28;20191;-79
2021/11/27 12:19:55;;;;;;;15.63;9.10;;;2.90;99.90;;;;;;5070782;28;20222;-81
2021/11/27 12:22:20;;;;;;;16.37;9.97;;;2.90;99.90;;;;;;5082963;28;20260;-81
2021/11/27 12:25:06;;;;;;;16.87;9.90;;;2.90;99.90;;;;;;5090653;28;20683;-81
2021/11/27 12:27:54;;;;;;;15.90;9.27;;;2.90;99.90;;;;;;5084131;28;20182;-79
2021/11/27 12:30:19;;;;;;;15.60;7.67;;;3.00;99.90;;;;;;5071997;28;20273;-79
2021/11/27 12:32:45;;;;;;;17.70;9.93;;;3.00;99.90;;;;;;5091953;28;20691;-80
2021/11/27 12:35:26;;;;;;;18.77;10.60;;;2.90;99.90;;;;;;5091045;28;20175;-80
2021/11/27 12:38:31;;;;;;;19.80;11.17;;;3.00;99.90;;;;;;5090580;28;20171;-81
2021/11/27 12:40:58;;;;;;;20.53;9.97;;;3.00;99.90;;;;;;5075021;28;20171;-81
2021/11/27 12:43:25;;;;;;;11.40;7.37;;;3.00;99.90;;;;;;5072095;28;20678;-80
2021/11/27 12:45:57;;;;;;;19.83;10.00;;;3.10;99.90;;;;;;5071151;28;20647;-80